Time;durP1;ratioP1;P1;durP2;ratioP2;P2;SDS_P1;SDS_P2;PMS_P1;PMS_P2;Temp;Humidity;BMP_temperature;BMP_pressure;BME280_temperature;BME280_humidity;BME280_pressure;Samples;Min_cycle;Max_cycle;Signal;HPM_P1;HPM_P2
2021/08/11 00:01:29;;;;;;;20.93;5.20;;;16.30;1.00;;;;;;5033957;28;20785;-80
2021/08/11 00:13:56;;;;;;;10.23;5.00;;;16.00;1.00;;;;;;5034978;28;20761;-80
2021/08/11 00:16:41;;;;;;;10.27;5.30;;;16.00;1.00;;;;;;5015666;28;20435;-80
2021/08/11 00:25:54;;;;;;;10.87;5.13;;;15.80;1.00;;;;;;5034404;28;20432;-80
2021/08/11 00:31:48;;;;;;;11.50;5.70;;;15.80;1.00;;;;;;5034598;28;20432;-81
2021/08/11 00:34:47;;;;;;;9.83;6.17;;;15.80;1.00;;;;;;5034306;28;20503;-80
2021/08/11 00:41:23;;;;;;;12.20;4.70;;;15.70;1.00;;;;;;5034059;28;20441;-80
2021/08/11 00:47:10;;;;;;;13.37;5.37;;;15.60;1.00;;;;;;5033924;28;20405;-82
2021/08/11 00:49:42;;;;;;;10.87;5.50;;;15.60;1.00;;;;;;5034410;28;20907;-80
2021/08/11 00:52:11;;;;;;;7.30;5.23;;;15.60;1.00;;;;;;5033946;28;20161;-81
2021/08/11 00:54:39;;;;;;;11.97;5.23;;;15.60;1.00;;;;;;5034029;28;20388;-80
2021/08/11 00:57:19;;;;;;;6.47;4.63;;;15.60;1.00;;;;;;5033799;28;20418;-81
2021/08/11 00:59:47;;;;;;;10.93;6.43;;;15.60;1.00;;;;;;5033598;28;20443;-80
2021/08/11 01:02:17;;;;;;;11.33;5.00;;;15.60;1.00;;;;;;5032713;28;20394;-80
2021/08/11 01:04:45;;;;;;;12.10;5.20;;;15.60;1.00;;;;;;5032827;28;20767;-80
2021/08/11 01:07:30;;;;;;;11.20;6.10;;;15.60;1.00;;;;;;5033689;28;20394;-80
2021/08/11 01:13:36;;;;;;;9.53;5.50;;;15.60;1.00;;;;;;5033455;28;20430;-80
2021/08/11 01:20:11;;;;;;;7.53;4.97;;;15.60;1.00;;;;;;5033392;28;20396;-81
2021/08/11 01:26:15;;;;;;;10.03;4.50;;;15.50;1.00;;;;;;5014081;28;20403;-81
2021/08/11 01:32:31;;;;;;;7.20;4.83;;;15.30;1.00;;;;;;5028428;28;20411;-81
2021/08/11 01:41:50;;;;;;;9.00;5.20;;;15.20;1.00;;;;;;5033364;28;20446;-80
2021/08/11 01:44:20;;;;;;;14.03;5.77;;;15.10;1.00;;;;;;5033412;28;20446;-80
2021/08/11 01:50:20;;;;;;;9.50;4.60;;;15.00;1.00;;;;;;5033403;28;20388;-81
2021/08/11 01:56:08;;;;;;;12.20;5.17;;;15.00;1.00;;;;;;5027729;28;20760;-81
2021/08/11 01:58:42;;;;;;;10.40;5.27;;;14.90;1.00;;;;;;5029865;28;20427;-81
2021/08/11 02:04:42;;;;;;;13.63;5.53;;;14.90;1.00;;;;;;5032792;28;20467;-81
2021/08/11 02:10:31;;;;;;;12.63;5.57;;;14.80;1.00;;;;;;5037248;28;20380;-81
2021/08/11 02:13:29;;;;;;;8.47;5.57;;;14.80;1.00;;;;;;5036004;28;20422;-81
2021/08/11 02:22:39;;;;;;;9.50;5.13;;;14.80;1.00;;;;;;5036943;28;20956;-82
2021/08/11 02:28:34;;;;;;;9.13;5.33;;;14.70;1.00;;;;;;5026160;28;20602;-81
2021/08/11 02:35:11;;;;;;;7.47;5.27;;;14.60;1.00;;;;;;5024144;28;20438;-80
2021/08/11 02:41:09;;;;;;;14.83;8.50;;;14.60;1.00;;;;;;5036585;28;20759;-81
2021/08/11 02:44:23;;;;;;;11.67;6.77;;;14.60;1.00;;;;;;5036751;28;20421;-81
2021/08/11 02:47:23;;;;;;;11.23;5.57;;;14.50;1.00;;;;;;5036034;28;20385;-80
2021/08/11 02:53:15;;;;;;;6.83;4.90;;;14.40;1.00;;;;;;5036444;28;20477;-80
2021/08/11 02:59:04;;;;;;;9.53;5.70;;;14.40;1.00;;;;;;5016497;28;20445;-81
2021/08/11 03:08:15;;;;;;;8.97;5.80;;;14.50;1.00;;;;;;5036157;28;20362;-81
2021/08/11 03:21:35;;;;;;;12.13;5.30;;;14.50;1.00;;;;;;5035574;28;20421;-80
2021/08/11 03:27:22;;;;;;;6.30;4.57;;;14.50;1.00;;;;;;5035788;28;20405;-80
2021/08/11 03:30:36;;;;;;;13.90;4.63;;;14.40;1.00;;;;;;5035868;28;20370;-80
2021/08/11 03:36:59;;;;;;;11.00;4.77;;;14.40;1.00;;;;;;5033492;28;20369;-80
2021/08/11 03:42:46;;;;;;;7.17;4.73;;;14.30;1.00;;;;;;5033585;28;20452;-80
2021/08/11 03:48:34;;;;;;;10.20;4.90;;;14.20;1.00;;;;;;5035826;28;20211;-81
2021/08/11 03:57:59;;;;;;;10.47;5.20;;;14.20;1.00;;;;;;5035115;28;20432;-81
2021/08/11 04:04:41;;;;;;;7.97;5.00;;;14.10;1.00;;;;;;5031373;28;20454;-80
2021/08/11 04:07:29;;;;;;;8.17;5.10;;;14.10;1.00;;;;;;5035036;28;20477;-77
2021/08/11 04:10:29;;;;;;;10.20;5.30;;;14.10;1.00;;;;;;5034932;28;20415;-77
2021/08/11 04:20:11;;;;;;;8.83;4.50;;;14.10;1.00;;;;;;5034984;28;20946;-85
2021/08/11 04:22:41;;;;;;;9.23;5.70;;;14.00;1.00;;;;;;5026962;28;20417;-86
2021/08/11 04:28:29;;;;;;;7.97;4.80;;;14.00;1.00;;;;;;5035034;28;20508;-86
2021/08/11 04:34:17;;;;;;;10.00;5.47;;;14.00;1.00;;;;;;5035155;28;20168;-86
2021/08/11 04:37:35;;;;;;;7.13;5.00;;;14.00;1.00;;;;;;5035401;28;20383;-87
2021/08/11 04:40:18;;;;;;;9.23;5.53;;;14.00;1.00;;;;;;5034277;28;20242;-86
2021/08/11 04:46:23;;;;;;;6.40;5.00;;;14.00;1.00;;;;;;5035095;28;20498;-86
2021/08/11 04:49:06;;;;;;;8.67;5.20;;;14.10;1.00;;;;;;5032191;28;20411;-79
2021/08/11 04:54:54;;;;;;;7.27;5.17;;;14.20;1.00;;;;;;5033811;28;20446;-77
2021/08/11 04:57:20;;;;;;;11.40;5.80;;;14.40;1.00;;;;;;5033738;28;20396;-78
2021/08/11 04:59:45;;;;;;;11.27;5.67;;;14.40;1.00;;;;;;5033880;28;20188;-78
2021/08/11 05:02:23;;;;;;;7.67;5.40;;;14.50;1.00;;;;;;5034426;28;20247;-81
2021/08/11 05:04:53;;;;;;;8.73;5.30;;;14.50;1.00;;;;;;5017198;28;20211;-81
2021/08/11 05:07:23;;;;;;;7.23;5.40;;;14.60;1.00;;;;;;5029582;28;20448;-81
2021/08/11 05:09:53;;;;;;;7.50;4.60;;;14.70;1.00;;;;;;5032436;28;20390;-81
2021/08/11 05:12:24;;;;;;;13.13;5.00;;;14.70;1.00;;;;;;5033764;28;20817;-81
2021/08/11 05:18:12;;;;;;;6.50;4.70;;;14.80;1.00;;;;;;5033616;28;20748;-81
2021/08/11 05:23:59;;;;;;;8.10;4.93;;;14.90;1.00;;;;;;5031870;28;20502;-80
2021/08/11 05:29:57;;;;;;;8.60;5.10;;;15.10;1.00;;;;;;5033125;28;20176;-80
2021/08/11 05:32:23;;;;;;;7.70;5.40;;;15.20;1.00;;;;;;5031054;28;20432;-90
2021/08/11 05:34:48;;;;;;;7.70;5.00;;;15.20;1.00;;;;;;5029177;28;20459;-90
2021/08/11 05:37:16;;;;;;;8.93;5.47;;;15.30;1.00;;;;;;5015501;28;20894;-91
2021/08/11 05:39:41;;;;;;;6.80;5.00;;;15.30;1.00;;;;;;5030722;28;20184;-89
2021/08/11 05:42:07;;;;;;;10.10;5.23;;;15.40;1.00;;;;;;5020290;28;20824;-91
2021/08/11 05:44:33;;;;;;;8.53;5.50;;;15.50;1.00;;;;;;5019651;28;20193;-91
2021/08/11 05:47:01;;;;;;;11.30;5.20;;;15.60;1.00;;;;;;5012907;28;20427;-91
2021/08/11 05:49:29;;;;;;;10.03;5.50;;;15.70;1.00;;;;;;5028993;28;20801;-81
2021/08/11 05:51:59;;;;;;;10.33;5.03;;;15.70;1.00;;;;;;5032521;28;20397;-82
2021/08/11 05:54:29;;;;;;;11.87;4.67;;;15.70;1.00;;;;;;5033352;28;20443;-81
2021/08/11 05:56:55;;;;;;;9.23;5.00;;;15.90;1.00;;;;;;5018076;28;20940;-80
2021/08/11 05:59:21;;;;;;;7.20;4.83;;;15.90;1.00;;;;;;5027660;28;20442;-79
2021/08/11 06:01:46;;;;;;;5.73;4.63;;;16.10;1.00;;;;;;5032767;28;20168;-80
2021/08/11 06:04:13;;;;;;;9.20;4.73;;;;;;;;;;5028887;28;20596;-83
2021/08/11 06:06:38;;;;;;;6.43;4.10;;;16.20;1.00;;;;;;5025483;28;20433;-83
2021/08/11 06:09:04;;;;;;;7.30;4.83;;;16.30;1.00;;;;;;5016926;28;20453;-83
2021/08/11 06:11:29;;;;;;;10.70;4.97;;;16.30;1.00;;;;;;5028599;28;20166;-83
2021/08/11 06:13:55;;;;;;;7.90;4.53;;;16.40;1.00;;;;;;5027221;28;20634;-83
2021/08/11 06:16:21;;;;;;;10.13;5.00;;;16.70;1.00;;;;;;5029922;28;20176;-83
2021/08/11 06:18:47;;;;;;;7.50;4.93;;;16.80;1.00;;;;;;5019934;28;20176;-80
2021/08/11 06:21:12;;;;;;;9.20;5.70;;;16.80;1.00;;;;;;5021270;28;20196;-81
2021/08/11 06:23:38;;;;;;;9.40;5.73;;;16.90;1.00;;;;;;5029631;28;20223;-80
2021/08/11 06:26:04;;;;;;;14.17;5.20;;;;;;;;;;5031166;28;20219;-80
2021/08/11 06:28:30;;;;;;;14.30;5.33;;;;;;;;;;5028468;28;20173;-79
2021/08/11 06:30:59;;;;;;;13.77;5.43;;;17.20;1.00;;;;;;5018112;28;20404;-79
2021/08/11 06:33:25;;;;;;;12.63;5.67;;;17.40;1.00;;;;;;5013202;28;20878;-78
2021/08/11 06:35:51;;;;;;;11.00;5.23;;;;;;;;;;5013641;28;20504;-78
2021/08/11 06:38:17;;;;;;;11.53;4.93;;;17.80;1.00;;;;;;5012518;28;20158;-78
2021/08/11 06:40:43;;;;;;;8.47;5.87;;;17.80;1.00;;;;;;5015000;28;20522;-78
2021/08/11 06:43:09;;;;;;;7.77;5.77;;;17.90;1.00;;;;;;5028336;28;20202;-78
2021/08/11 06:45:35;;;;;;;6.47;4.97;;;;;;;;;;5031238;28;20396;-78
2021/08/11 06:48:01;;;;;;;7.03;5.27;;;18.20;1.00;;;;;;5032317;28;20167;-78
2021/08/11 06:50:29;;;;;;;9.53;4.47;;;18.30;1.00;;;;;;5030245;28;20769;-78
2021/08/11 06:52:55;;;;;;;13.20;4.97;;;;;;;;;;5033954;28;20195;-78
2021/08/11 06:55:21;;;;;;;6.33;4.80;;;18.70;1.00;;;;;;5026214;28;20529;-78
2021/08/11 06:57:49;;;;;;;12.23;4.63;;;;;;;;;;5025872;28;20426;-79
2021/08/11 07:00:16;;;;;;;6.97;4.33;;;19.00;1.00;;;;;;5018815;28;20310;-78
2021/08/11 07:02:42;;;;;;;8.47;3.87;;;;;;;;;;5015974;28;20419;-79
2021/08/11 07:05:08;;;;;;;6.30;3.77;;;19.20;1.00;;;;;;5025013;28;20437;-81
2021/08/11 07:07:34;;;;;;;4.60;3.60;;;19.30;1.00;;;;;;5014524;28;20781;-85
2021/08/11 07:10:00;;;;;;;5.70;4.20;;;19.40;1.00;;;;;;5026268;28;20449;-72
2021/08/11 07:12:27;;;;;;;6.70;4.17;;;19.40;1.00;;;;;;5031397;28;20169;-71
2021/08/11 07:14:53;;;;;;;5.07;3.50;;;19.70;1.00;;;;;;5034217;28;20422;-72
2021/08/11 07:17:20;;;;;;;12.50;3.70;;;19.90;1.00;;;;;;5030108;28;20434;-72
2021/08/11 07:19:45;;;;;;;5.83;4.13;;;19.90;1.00;;;;;;5033024;28;20410;-71
2021/08/11 07:22:11;;;;;;;4.63;3.87;;;20.30;1.00;;;;;;5034635;28;20415;-72
2021/08/11 07:24:37;;;;;;;4.57;3.20;;;20.20;1.00;;;;;;5026490;28;20680;-72
2021/08/11 07:27:04;;;;;;;4.97;3.17;;;20.30;1.00;;;;;;5029017;28;20189;-71
2021/08/11 07:29:30;;;;;;;4.17;3.40;;;20.50;1.00;;;;;;5015149;28;20397;-72
2021/08/11 07:31:56;;;;;;;6.23;3.50;;;20.70;1.00;;;;;;5025436;28;20907;-72
2021/08/11 07:34:21;;;;;;;7.07;3.70;;;20.90;1.00;;;;;;5020273;28;20169;-76
2021/08/11 07:36:47;;;;;;;4.13;3.13;;;21.00;1.00;;;;;;5031182;28;20260;-75
2021/08/11 07:39:12;;;;;;;3.77;3.07;;;21.20;1.00;;;;;;5022656;28;20639;-75
2021/08/11 07:41:39;;;;;;;7.60;3.40;;;21.20;1.00;;;;;;5030991;28;20184;-75
2021/08/11 07:44:05;;;;;;;3.47;2.80;;;21.50;1.00;;;;;;5032996;28;20197;-75
2021/08/11 07:46:31;;;;;;;8.73;3.07;;;21.60;1.00;;;;;;5019980;28;20429;-76
2021/08/11 07:48:57;;;;;;;4.40;2.73;;;21.60;1.00;;;;;;5034909;28;20186;-75
2021/08/11 07:51:24;;;;;;;6.70;2.90;;;21.60;1.00;;;;;;5030180;28;20167;-75
2021/08/11 07:53:50;;;;;;;3.43;2.80;;;21.70;1.00;;;;;;5031829;28;20422;-75
2021/08/11 07:56:15;;;;;;;4.83;2.33;;;21.70;1.00;;;;;;5015038;28;20426;-75
2021/08/11 07:58:41;;;;;;;3.73;3.27;;;21.60;1.00;;;;;;5015075;28;20426;-75
2021/08/11 08:01:07;;;;;;;4.17;3.23;;;21.60;1.00;;;;;;5014821;28;20199;-75
2021/08/11 08:03:34;;;;;;;4.57;2.97;;;21.70;1.00;;;;;;5014386;28;20460;-74
2021/08/11 08:06:00;;;;;;;4.37;3.27;;;21.80;1.00;;;;;;5033940;28;20460;-72
2021/08/11 08:08:25;;;;;;;5.13;3.50;;;21.90;1.00;;;;;;5034519;28;20484;-71
2021/08/11 08:10:51;;;;;;;5.80;3.17;;;22.00;1.00;;;;;;5034765;28;20161;-71
2021/08/11 08:13:20;;;;;;;5.00;2.60;;;22.10;1.00;;;;;;5034182;28;20210;-71
2021/08/11 08:15:47;;;;;;;6.40;3.20;;;22.30;1.00;;;;;;5037308;28;20204;-80
2021/08/11 08:18:13;;;;;;;6.87;2.50;;;22.40;1.00;;;;;;5029575;28;20485;-81
2021/08/11 08:20:39;;;;;;;3.47;2.57;;;22.40;1.00;;;;;;5033671;28;20893;-81
2021/08/11 08:23:05;;;;;;;5.00;2.80;;;22.60;1.00;;;;;;5025454;28;20452;-80
2021/08/11 08:25:31;;;;;;;7.70;2.37;;;22.60;1.00;;;;;;5019107;28;20911;-80
2021/08/11 08:27:57;;;;;;;5.43;2.60;;;22.60;1.00;;;;;;5024692;28;20426;-80
2021/08/11 08:30:23;;;;;;;2.90;2.40;;;22.70;1.00;;;;;;5014423;28;20165;-80
2021/08/11 08:32:54;;;;;;;2.83;2.43;;;22.80;1.00;;;;;;5020964;28;20777;-80
2021/08/11 08:35:20;;;;;;;4.10;2.80;;;22.90;1.00;;;;;;5014298;28;20417;-82
2021/08/11 08:37:45;;;;;;;5.90;2.63;;;22.90;1.00;;;;;;5013847;28;20878;-81
2021/08/11 08:40:13;;;;;;;3.07;2.30;;;23.00;1.00;;;;;;5014266;28;20158;-81
2021/08/11 08:42:42;;;;;;;6.63;3.00;;;23.10;1.00;;;;;;5013728;28;20658;-81
2021/08/11 08:45:13;;;;;;;4.80;2.57;;;23.20;1.00;;;;;;5016396;28;20432;-80
2021/08/11 08:47:45;;;;;;;7.37;2.70;;;23.20;1.00;;;;;;5029407;28;20428;-79
2021/08/11 08:50:11;;;;;;;17.00;3.17;;;23.20;1.00;;;;;;5032279;28;20386;-81
2021/08/11 08:52:38;;;;;;;6.03;2.40;;;23.30;1.00;;;;;;5033958;28;20438;-82
2021/08/11 08:55:06;;;;;;;2.63;2.23;;;23.40;1.00;;;;;;5034095;28;20468;-81
2021/08/11 08:57:35;;;;;;;3.83;2.40;;;;;;;;;;5032649;28;20457;-81
2021/08/11 09:00:04;;;;;;;2.50;2.27;;;23.50;1.00;;;;;;5032195;28;20848;-82
2021/08/11 09:02:42;;;;;;;7.50;2.40;;;;;;;;;;5031971;28;20452;-81
2021/08/11 09:05:12;;;;;;;8.83;2.60;;;23.50;1.00;;;;;;5033562;28;20898;-81
2021/08/11 09:07:46;;;;;;;2.40;2.20;;;23.60;1.00;;;;;;5033511;28;20418;-81
2021/08/11 09:10:21;;;;;;;15.43;2.83;;;23.60;1.00;;;;;;5033514;28;20400;-82
2021/08/11 09:12:49;;;;;;;3.07;2.40;;;23.60;1.00;;;;;;5033397;28;20776;-82
2021/08/11 09:15:33;;;;;;;6.40;2.40;;;23.70;1.00;;;;;;5031923;28;20427;-81
2021/08/11 09:18:09;;;;;;;4.80;2.13;;;23.80;1.00;;;;;;5033158;28;20445;-82
2021/08/11 09:20:37;;;;;;;3.00;2.07;;;;;;;;;;5033362;28;20372;-82
2021/08/11 09:23:03;;;;;;;4.30;2.20;;;;;;;;;;5033147;28;20451;-82
2021/08/11 09:26:05;;;;;;;2.33;1.93;;;24.20;1.00;;;;;;5033197;28;20393;-82
2021/08/11 09:28:34;;;;;;;3.27;2.53;;;24.40;1.00;;;;;;4952059;29;20899;-82
2021/08/11 09:31:00;;;;;;;3.93;2.53;;;24.60;1.00;;;;;;4954200;28;20504;-81
2021/08/11 09:33:26;;;;;;;6.07;2.40;;;24.80;1.00;;;;;;4952694;29;20457;-81
2021/08/11 09:35:53;;;;;;;15.70;3.10;;;24.90;1.00;;;;;;4952267;29;20510;-82
2021/08/11 09:38:20;;;;;;;6.20;2.53;;;;;;;;;;4952620;29;20237;-79
2021/08/11 09:40:51;;;;;;;6.03;2.30;;;;;;;;;;4952904;29;20406;-80
2021/08/11 09:43:18;;;;;;;6.43;2.10;;;;;;;;;;4952196;29;20471;-80
2021/08/11 09:45:51;;;;;;;3.83;2.40;;;;;;;;;;4952545;29;20426;-79
2021/08/11 09:48:18;;;;;;;3.13;2.10;;;;;;;;;;4952593;29;20509;-80
2021/08/11 09:50:58;;;;;;;3.17;2.30;;;;;;;;;;4952436;29;20420;-80
2021/08/11 10:00:08;;;;;;;3.27;2.17;;;25.80;1.00;;;;;;4952935;29;20477;-82
2021/08/11 10:03:02;;;;;;;2.50;2.27;;;25.80;1.00;;;;;;4953214;29;20440;-82
2021/08/11 10:05:38;;;;;;;2.23;2.03;;;25.70;1.00;;;;;;5013663;28;20413;-81
2021/08/11 10:08:05;;;;;;;2.90;1.70;;;25.70;1.00;;;;;;5012777;28;20421;-80
2021/08/11 10:10:49;;;;;;;2.43;2.23;;;25.60;1.00;;;;;;5013615;28;20767;-80
2021/08/11 10:13:21;;;;;;;2.63;2.20;;;25.50;1.00;;;;;;5032532;28;20409;-79
2021/08/11 10:15:54;;;;;;;2.60;2.40;;;25.40;1.00;;;;;;5033080;28;20930;-79
2021/08/11 10:18:26;;;;;;;3.57;2.40;;;25.30;1.00;;;;;;5033320;28;20403;-79
2021/08/11 10:24:14;;;;;;;2.67;2.43;;;25.30;1.00;;;;;;5033439;28;20445;-80
2021/08/11 10:30:01;;;;;;;3.13;1.93;;;25.80;1.00;;;;;;5036757;28;20430;-79
2021/08/11 10:35:54;;;;;;;3.10;1.77;;;25.90;1.00;;;;;;5017020;28;20181;-79
2021/08/11 10:38:55;;;;;;;14.93;2.27;;;25.90;1.00;;;;;;5016234;28;20806;-82
2021/08/11 10:41:31;;;;;;;1.90;1.80;;;26.00;1.00;;;;;;5033622;28;20937;-82
2021/08/11 10:44:35;;;;;;;2.50;1.90;;;26.20;1.00;;;;;;5025222;28;20449;-81
2021/08/11 10:47:12;;;;;;;2.07;1.80;;;26.40;1.00;;;;;;5026779;28;20504;-82
2021/08/11 10:56:55;;;;;;;1.70;1.60;;;26.60;1.00;;;;;;5036505;28;20448;-79
2021/08/11 10:59:28;;;;;;;3.07;2.20;;;26.80;1.00;;;;;;5019326;28;20449;-79
2021/08/11 11:09:17;;;;;;;3.67;1.60;;;26.90;1.00;;;;;;5029158;28;20547;-80
2021/08/11 11:11:47;;;;;;;2.40;1.87;;;27.00;1.00;;;;;;5021752;28;20562;-80
2021/08/11 11:14:43;;;;;;;2.27;2.07;;;27.00;1.00;;;;;;5016731;28;20793;-79
2021/08/11 11:17:12;;;;;;;2.30;1.53;;;27.10;1.00;;;;;;5015735;28;20439;-79
2021/08/11 11:20:03;;;;;;;2.33;2.13;;;27.30;1.00;;;;;;5029311;28;20516;-79
2021/08/11 11:22:40;;;;;;;2.10;1.60;;;27.50;1.00;;;;;;5020686;28;20912;-80
2021/08/11 11:25:08;;;;;;;2.10;1.60;;;27.50;1.00;;;;;;5034118;28;20830;-80
2021/08/11 11:27:43;;;;;;;2.03;1.60;;;27.90;1.00;;;;;;5031459;28;20436;-80
2021/08/11 11:30:14;;;;;;;1.97;1.40;;;27.80;1.00;;;;;;5022737;28;20467;-80
2021/08/11 11:32:41;;;;;;;3.20;1.80;;;28.10;1.00;;;;;;5029087;28;20431;-80
2021/08/11 11:35:17;;;;;;;4.70;1.50;;;28.20;1.00;;;;;;5028621;28;20434;-79
2021/08/11 11:37:44;;;;;;;1.93;1.70;;;28.30;1.00;;;;;;5029760;28;20463;-80
2021/08/11 11:40:15;;;;;;;1.80;1.70;;;28.50;1.00;;;;;;5035006;28;20423;-80
2021/08/11 11:42:41;;;;;;;4.67;1.87;;;28.60;1.00;;;;;;5021870;28;20430;-80
2021/08/11 11:45:13;;;;;;;2.17;1.77;;;28.80;1.00;;;;;;5028575;28;20583;-79
2021/08/11 11:47:42;;;;;;;1.90;1.80;;;;;;;;;;5028477;28;20423;-79
2021/08/11 11:50:20;;;;;;;2.90;1.43;;;29.10;1.00;;;;;;5026767;28;20427;-79
2021/08/11 11:52:56;;;;;;;4.20;1.97;;;29.40;1.00;;;;;;5015301;28;20394;-78
2021/08/11 11:55:27;;;;;;;4.10;1.83;;;29.60;1.00;;;;;;5014930;28;20420;-81
2021/08/11 11:57:58;;;;;;;5.03;1.80;;;29.60;1.00;;;;;;5028027;28;20777;-82
2021/08/11 12:00:24;;;;;;;2.93;1.80;;;29.50;1.00;;;;;;5034663;28;20441;-81
2021/08/11 12:02:51;;;;;;;2.47;1.70;;;29.40;1.00;;;;;;5034638;28;20942;-81
2021/08/11 12:05:17;;;;;;;1.80;1.70;;;29.30;1.00;;;;;;5034683;28;20771;-82
2021/08/11 12:07:43;;;;;;;1.83;1.40;;;29.20;1.00;;;;;;5032230;28;20413;-82
2021/08/11 12:10:09;;;;;;;2.10;2.00;;;29.10;1.00;;;;;;5028651;28;20916;-80
2021/08/11 12:12:35;;;;;;;2.10;1.90;;;29.20;1.00;;;;;;5019819;28;20204;-80
2021/08/11 12:15:20;;;;;;;2.77;2.20;;;29.30;1.00;;;;;;5018355;28;20428;-80
2021/08/11 12:17:46;;;;;;;10.20;2.10;;;29.20;1.00;;;;;;5031455;28;20429;-79
2021/08/11 12:20:44;;;;;;;2.90;2.23;;;29.30;1.00;;;;;;5033405;28;20425;-80
2021/08/11 12:23:16;;;;;;;7.10;2.27;;;29.10;1.00;;;;;;5008063;28;20727;-81
2021/08/11 12:25:42;;;;;;;3.00;2.10;;;28.90;1.00;;;;;;4996280;28;20440;-82
2021/08/11 12:28:25;;;;;;;3.00;2.00;;;28.80;1.00;;;;;;4996553;28;20951;-81
2021/08/11 12:30:58;;;;;;;1.93;1.73;;;28.70;1.00;;;;;;5004547;28;20177;-81
2021/08/11 12:33:26;;;;;;;2.27;2.07;;;28.50;1.00;;;;;;5001440;28;20433;-82
2021/08/11 12:35:52;;;;;;;4.87;1.97;;;28.50;1.00;;;;;;4992494;28;20407;-81
2021/08/11 12:38:36;;;;;;;3.60;1.87;;;28.80;1.00;;;;;;5003684;28;20903;-81
2021/08/11 12:41:19;;;;;;;4.80;1.97;;;28.90;1.00;;;;;;5008064;28;20860;-81
2021/08/11 12:43:49;;;;;;;2.60;1.73;;;29.10;1.00;;;;;;5003476;28;21103;-82
2021/08/11 12:46:15;;;;;;;3.13;1.90;;;29.60;1.00;;;;;;5000432;28;20433;-82
2021/08/11 12:48:41;;;;;;;3.33;1.83;;;29.60;1.00;;;;;;4993014;28;20436;-87
2021/08/11 12:51:27;;;;;;;5.00;2.27;;;29.80;1.00;;;;;;4991796;28;20419;-81
2021/08/11 12:54:07;;;;;;;2.70;2.50;;;29.80;1.00;;;;;;5008965;28;20494;-80
2021/08/11 12:56:33;;;;;;;2.37;2.17;;;29.90;1.00;;;;;;4999298;28;20441;-80
2021/08/11 12:59:07;;;;;;;4.30;1.57;;;30.00;1.00;;;;;;5015380;28;20444;-80
2021/08/11 13:01:41;;;;;;;3.23;2.10;;;30.20;1.00;;;;;;5029817;28;21123;-80
2021/08/11 13:04:21;;;;;;;2.00;1.90;;;30.70;1.00;;;;;;5033449;28;20505;-80
2021/08/11 13:06:48;;;;;;;7.30;2.00;;;30.90;1.00;;;;;;5027896;28;20469;-80
2021/08/11 13:09:31;;;;;;;5.90;1.93;;;30.90;1.00;;;;;;5027551;28;20769;-79
2021/08/11 13:12:05;;;;;;;2.30;2.10;;;31.10;1.00;;;;;;5020672;28;20414;-79
2021/08/11 13:14:44;;;;;;;4.30;2.00;;;31.30;1.00;;;;;;5024362;28;20466;-80
2021/08/11 13:17:10;;;;;;;7.13;3.00;;;31.30;1.00;;;;;;5013497;28;20424;-80
2021/08/11 13:19:36;;;;;;;2.77;2.10;;;31.30;1.00;;;;;;5013252;28;20435;-80
2021/08/11 13:22:03;;;;;;;1.87;1.70;;;31.30;1.00;;;;;;5019184;28;20420;-80
2021/08/11 13:24:29;;;;;;;2.97;1.63;;;;;;;;;;5019918;28;20465;-80
2021/08/11 13:26:59;;;;;;;5.37;2.20;;;;;;;;;;5033112;28;20766;-80
2021/08/11 13:29:35;;;;;;;2.10;2.00;;;31.10;1.00;;;;;;5032912;28;20387;-80
2021/08/11 13:32:01;;;;;;;2.17;1.97;;;31.10;1.00;;;;;;5027865;28;20422;-79
2021/08/11 13:34:27;;;;;;;3.00;2.03;;;31.10;1.00;;;;;;5018899;28;20447;-79
2021/08/11 13:36:53;;;;;;;5.40;2.10;;;;;;;;;;5013146;28;20499;-79
2021/08/11 13:39:19;;;;;;;2.40;2.10;;;31.00;1.00;;;;;;5013612;28;20401;-79
2021/08/11 13:41:47;;;;;;;4.93;2.27;;;31.00;1.00;;;;;;5025505;28;20438;-79
2021/08/11 13:44:13;;;;;;;2.50;2.10;;;31.00;1.00;;;;;;5025026;28;20208;-79
2021/08/11 13:46:40;;;;;;;2.87;2.17;;;31.10;1.00;;;;;;5019150;28;20955;-80
2021/08/11 13:49:07;;;;;;;5.27;2.60;;;31.10;1.00;;;;;;5020306;28;20590;-79
2021/08/11 13:51:36;;;;;;;2.90;2.03;;;31.20;1.00;;;;;;5023306;28;20534;-80
2021/08/11 13:54:03;;;;;;;4.90;2.70;;;31.00;1.00;;;;;;5023497;28;20532;-80
2021/08/11 13:56:29;;;;;;;5.90;2.47;;;;;;;;;;5022168;28;20423;-80
2021/08/11 13:58:55;;;;;;;5.03;2.67;;;30.60;1.00;;;;;;5027452;28;20768;-79
2021/08/11 14:01:21;;;;;;;3.10;2.70;;;30.50;1.00;;;;;;5031071;28;20450;-79
2021/08/11 14:03:47;;;;;;;4.70;2.40;;;;;;;;;;5031435;28;20185;-79
2021/08/11 14:06:14;;;;;;;3.20;2.50;;;30.30;1.00;;;;;;5028904;28;20185;-79
2021/08/11 14:08:39;;;;;;;5.00;2.40;;;30.40;1.00;;;;;;5030622;28;20446;-79
2021/08/11 14:11:05;;;;;;;3.53;2.13;;;;;;;;;;5032363;28;20912;-79
2021/08/11 14:13:31;;;;;;;2.60;2.00;;;30.40;1.00;;;;;;5031908;28;20238;-77
2021/08/11 14:15:57;;;;;;;2.10;1.90;;;30.50;1.00;;;;;;5026483;28;20435;-78
2021/08/11 14:18:23;;;;;;;4.40;1.93;;;30.80;1.00;;;;;;5032396;28;20522;-83
2021/08/11 14:20:48;;;;;;;4.27;2.13;;;;;;;;;;5032218;28;20242;-78
2021/08/11 14:23:15;;;;;;;6.47;2.13;;;;;;;;;;5024954;28;20294;-78
2021/08/11 14:25:40;;;;;;;6.10;2.40;;;31.60;1.00;;;;;;5013685;28;20407;-77
2021/08/11 14:28:06;;;;;;;3.03;2.07;;;32.10;1.00;;;;;;5031450;28;20404;-78
2021/08/11 14:30:31;;;;;;;3.17;2.13;;;32.10;1.00;;;;;;5032262;28;20157;-78
2021/08/11 14:32:57;;;;;;;4.47;2.23;;;32.40;1.00;;;;;;5029857;28;20569;-78
2021/08/11 14:35:23;;;;;;;4.00;1.90;;;;;;;;;;5012468;28;20226;-77
2021/08/11 14:37:49;;;;;;;3.60;2.40;;;32.50;1.00;;;;;;5028084;28;20165;-82
2021/08/11 14:40:15;;;;;;;4.27;2.20;;;32.30;1.00;;;;;;5015109;28;20905;-82
2021/08/11 14:42:41;;;;;;;4.30;2.60;;;;;;;;;;5032011;28;20161;-82
2021/08/11 14:45:07;;;;;;;5.73;2.20;;;32.40;1.00;;;;;;5030704;28;20471;-83
2021/08/11 14:47:32;;;;;;;2.40;2.20;;;32.70;1.00;;;;;;5031293;28;20438;-83
2021/08/11 14:49:59;;;;;;;5.13;2.40;;;;;;;;;;5029208;28;20176;-83
2021/08/11 14:52:24;;;;;;;2.43;2.00;;;32.70;1.00;;;;;;5028028;28;20272;-83
2021/08/11 14:54:50;;;;;;;5.87;2.60;;;;;;;;;;5028432;28;20525;-83
2021/08/11 14:57:16;;;;;;;2.93;2.10;;;32.70;1.00;;;;;;5031980;28;20342;-88
2021/08/11 14:59:43;;;;;;;5.70;2.33;;;;;;;;;;5025491;28;20454;-87
2021/08/11 15:02:11;;;;;;;3.80;2.17;;;32.80;1.00;;;;;;5020619;28;20436;-87
2021/08/11 15:04:41;;;;;;;4.57;2.17;;;32.90;1.00;;;;;;5011717;28;20474;-87
2021/08/11 15:07:07;;;;;;;4.03;1.80;;;32.70;1.00;;;;;;5019317;28;20411;-87
2021/08/11 15:09:33;;;;;;;4.03;2.20;;;;;;;;;;5032562;28;20900;-87
2021/08/11 15:11:59;;;;;;;2.00;1.80;;;32.90;1.00;;;;;;5030931;28;20161;-83
2021/08/11 15:14:53;;;;;;;2.40;1.87;;;32.90;1.00;;;;;;5028054;28;20497;-83
2021/08/11 15:17:31;;;;;;;2.90;1.83;;;32.80;1.00;;;;;;5033448;28;20453;-83
2021/08/11 15:20:07;;;;;;;3.40;2.40;;;32.70;1.00;;;;;;5035895;28;20506;-83
2021/08/11 15:22:48;;;;;;;7.13;2.30;;;32.40;1.00;;;;;;5029258;28;20431;-82
2021/08/11 15:25:35;;;;;;;2.50;2.30;;;32.20;1.00;;;;;;5016285;28;20779;-83
2021/08/11 15:28:05;;;;;;;2.73;2.17;;;32.00;1.00;;;;;;5016393;28;20396;-82
2021/08/11 15:31:11;;;;;;;4.60;2.17;;;32.10;1.00;;;;;;5016130;28;20932;-82
2021/08/11 15:34:05;;;;;;;2.40;1.97;;;33.20;1.00;;;;;;5014029;28;20474;-82
2021/08/11 15:37:05;;;;;;;10.67;2.70;;;34.30;1.00;;;;;;5016166;28;20388;-82
2021/08/11 15:39:31;;;;;;;3.50;2.13;;;34.50;1.00;;;;;;5016057;28;20397;-82
2021/08/11 15:42:29;;;;;;;6.17;2.40;;;34.40;1.00;;;;;;5016617;28;20392;-88
2021/08/11 15:48:17;;;;;;;2.73;2.30;;;37.20;1.00;;;;;;5025572;28;20487;-87
2021/08/11 15:51:05;;;;;;;5.20;2.10;;;40.40;1.00;;;;;;5015225;28;20452;-88
2021/08/11 15:54:05;;;;;;;2.77;1.70;;;40.90;1.00;;;;;;5024310;28;20184;-87
2021/08/11 15:57:05;;;;;;;2.60;1.60;;;42.20;1.00;;;;;;5034342;28;20423;-87
2021/08/11 15:59:31;;;;;;;6.47;2.03;;;43.40;1.00;;;;;;5034507;28;20443;-87
2021/08/11 16:05:23;;;;;;;2.90;1.53;;;44.20;1.00;;;;;;5035482;28;20571;-87
2021/08/11 16:12:05;;;;;;;1.77;1.67;;;44.90;1.00;;;;;;5035504;28;20417;-87
2021/08/11 16:15:05;;;;;;;3.70;1.80;;;42.70;1.00;;;;;;5034332;28;20403;-87
2021/08/11 16:17:35;;;;;;;2.20;1.83;;;42.50;1.00;;;;;;5034520;28;20406;-87
2021/08/11 16:20:35;;;;;;;5.57;2.13;;;41.80;1.00;;;;;;5014551;28;20403;-88
2021/08/11 16:26:23;;;;;;;2.37;2.17;;;41.30;1.00;;;;;;5014614;28;20483;-87
2021/08/11 16:29:05;;;;;;;2.70;1.90;;;41.80;1.00;;;;;;5022508;28;20872;-82
2021/08/11 16:31:36;;;;;;;3.00;1.90;;;41.90;1.00;;;;;;5034930;28;20165;-83
2021/08/11 16:34:05;;;;;;;10.53;2.20;;;42.50;1.00;;;;;;5034786;28;20407;-82
2021/08/11 16:36:36;;;;;;;2.13;1.90;;;42.10;1.00;;;;;;5033501;28;20743;-83
2021/08/11 16:39:06;;;;;;;3.77;1.90;;;39.60;1.00;;;;;;5027239;28;20458;-82
2021/08/11 16:41:31;;;;;;;2.23;2.03;;;39.60;1.00;;;;;;5034377;28;20482;-82
2021/08/11 16:43:57;;;;;;;3.17;2.40;;;;;;;;;;5034840;28;20596;-87
2021/08/11 16:46:25;;;;;;;2.63;2.30;;;36.90;1.00;;;;;;5033611;28;20629;-87
2021/08/11 16:48:51;;;;;;;3.30;1.80;;;36.90;1.00;;;;;;5034750;28;21136;-87
2021/08/11 16:51:17;;;;;;;4.63;2.33;;;35.60;1.00;;;;;;5030921;28;20423;-86
2021/08/11 16:54:00;;;;;;;4.67;2.53;;;35.40;1.00;;;;;;5031300;28;20213;-87